sensor_id;sensor_type;location;lat;lon;timestamp;temperature;humidity
26575;DHT22;67165;50.256;10.978;2023-07-31T00:00:06;15.40;98.00
26575;DHT22;67165;50.256;10.978;2023-07-31T00:02:34;15.40;98.00
26575;DHT22;67165;50.256;10.978;2023-07-31T00:05:00;15.30;98.00
26575;DHT22;67165;50.256;10.978;2023-07-31T00:07:26;15.30;98.00
26575;DHT22;67165;50.256;10.978;2023-07-31T00:09:52;15.30;98.00
26575;DHT22;67165;50.256;10.978;2023-07-31T00:12:19;15.30;98.00
26575;DHT22;67165;50.256;10.978;2023-07-31T00:14:45;15.30;98.00
26575;DHT22;67165;50.256;10.978;2023-07-31T00:17:11;15.30;98.00
26575;DHT22;67165;50.256;10.978;2023-07-31T00:19:37;15.30;98.00
26575;DHT22;67165;50.256;10.978;2023-07-31T00:22:03;15.30;98.00
26575;DHT22;67165;50.256;10.978;2023-07-31T00:24:28;15.20;98.00
26575;DHT22;67165;50.256;10.978;2023-07-31T00:26:54;15.20;98.00
26575;DHT22;67165;50.256;10.978;2023-07-31T00:29:20;15.20;98.00
26575;DHT22;67165;50.256;10.978;2023-07-31T00:31:45;15.20;98.00
26575;DHT22;67165;50.256;10.978;2023-07-31T00:34:11;15.20;98.00
26575;DHT22;67165;50.256;10.978;2023-07-31T00:36:37;15.20;98.00
26575;DHT22;67165;50.256;10.978;2023-07-31T00:39:02;15.10;98.00
26575;DHT22;67165;50.256;10.978;2023-07-31T00:41:29;15.10;98.00
26575;DHT22;67165;50.256;10.978;2023-07-31T00:43:54;15.10;98.00
26575;DHT22;67165;50.256;10.978;2023-07-31T00:46:20;15.10;98.00
26575;DHT22;67165;50.256;10.978;2023-07-31T00:48:46;15.10;98.00
26575;DHT22;67165;50.256;10.978;2023-07-31T00:51:12;15.00;98.00
26575;DHT22;67165;50.256;10.978;2023-07-31T00:53:38;15.00;98.00
26575;DHT22;67165;50.256;10.978;2023-07-31T00:56:04;15.00;98.00
26575;DHT22;67165;50.256;10.978;2023-07-31T00:58:30;15.00;98.00
26575;DHT22;67165;50.256;10.978;2023-07-31T01:00:56;15.00;98.00
26575;DHT22;67165;50.256;10.978;2023-07-31T01:03:21;15.00;98.00
26575;DHT22;67165;50.256;10.978;2023-07-31T01:08:42;14.90;98.00
26575;DHT22;67165;50.256;10.978;2023-07-31T01:11:23;14.90;98.00
26575;DHT22;67165;50.256;10.978;2023-07-31T01:13:50;14.90;98.00
26575;DHT22;67165;50.256;10.978;2023-07-31T01:16:15;14.90;98.00
26575;DHT22;67165;50.256;10.978;2023-07-31T01:18:41;14.90;98.00
26575;DHT22;67165;50.256;10.978;2023-07-31T01:26:28;14.90;98.00
26575;DHT22;67165;50.256;10.978;2023-07-31T01:28:56;14.90;98.00
26575;DHT22;67165;50.256;10.978;2023-07-31T01:31:24;14.90;98.00
26575;DHT22;67165;50.256;10.978;2023-07-31T01:33:53;14.80;98.00
26575;DHT22;67165;50.256;10.978;2023-07-31T01:36:19;14.80;98.00
26575;DHT22;67165;50.256;10.978;2023-07-31T01:38:45;14.80;98.00
26575;DHT22;67165;50.256;10.978;2023-07-31T01:41:11;14.80;98.00
26575;DHT22;67165;50.256;10.978;2023-07-31T01:43:36;14.80;98.00
26575;DHT22;67165;50.256;10.978;2023-07-31T01:46:02;14.80;98.00
26575;DHT22;67165;50.256;10.978;2023-07-31T01:48:27;14.80;98.00
26575;DHT22;67165;50.256;10.978;2023-07-31T01:50:53;14.80;98.00
26575;DHT22;67165;50.256;10.978;2023-07-31T01:53:19;14.70;98.00
26575;DHT22;67165;50.256;10.978;2023-07-31T01:55:44;14.80;98.00
26575;DHT22;67165;50.256;10.978;2023-07-31T01:58:10;14.80;98.00
26575;DHT22;67165;50.256;10.978;2023-07-31T02:00:36;14.80;98.00
26575;DHT22;67165;50.256;10.978;2023-07-31T02:03:01;14.80;98.00
26575;DHT22;67165;50.256;10.978;2023-07-31T02:05:27;14.80;98.00
26575;DHT22;67165;50.256;10.978;2023-07-31T02:07:52;14.80;98.00
26575;DHT22;67165;50.256;10.978;2023-07-31T02:10:18;14.80;98.00
26575;DHT22;67165;50.256;10.978;2023-07-31T02:12:44;14.80;98.00
26575;DHT22;67165;50.256;10.978;2023-07-31T02:15:09;14.80;98.00
26575;DHT22;67165;50.256;10.978;2023-07-31T02:17:35;14.80;98.00
26575;DHT22;67165;50.256;10.978;2023-07-31T02:20:01;14.80;98.00
26575;DHT22;67165;50.256;10.978;2023-07-31T02:22:26;14.80;98.00
26575;DHT22;67165;50.256;10.978;2023-07-31T02:24:52;14.80;98.00
26575;DHT22;67165;50.256;10.978;2023-07-31T02:27:18;14.80;98.00
26575;DHT22;67165;50.256;10.978;2023-07-31T02:29:43;14.80;98.00
26575;DHT22;67165;50.256;10.978;2023-07-31T02:32:09;14.80;98.00
26575;DHT22;67165;50.256;10.978;2023-07-31T02:34:35;14.80;98.00
26575;DHT22;67165;50.256;10.978;2023-07-31T02:37:00;14.80;98.00
26575;DHT22;67165;50.256;10.978;2023-07-31T02:39:26;14.80;98.00
26575;DHT22;67165;50.256;10.978;2023-07-31T02:41:51;14.80;98.00
26575;DHT22;67165;50.256;10.978;2023-07-31T02:44:17;14.80;98.00
26575;DHT22;67165;50.256;10.978;2023-07-31T02:46:43;14.80;98.00
26575;DHT22;67165;50.256;10.978;2023-07-31T02:49:08;14.80;98.00
26575;DHT22;67165;50.256;10.978;2023-07-31T02:51:34;14.80;98.00
26575;DHT22;67165;50.256;10.978;2023-07-31T02:53:59;14.80;98.00
26575;DHT22;67165;50.256;10.978;2023-07-31T02:56:25;14.80;98.00
26575;DHT22;67165;50.256;10.978;2023-07-31T02:58:51;14.80;98.00
26575;DHT22;67165;50.256;10.978;2023-07-31T03:01:16;14.80;98.00
26575;DHT22;67165;50.256;10.978;2023-07-31T03:03:42;14.80;98.00
26575;DHT22;67165;50.256;10.978;2023-07-31T03:06:07;14.80;98.00
26575;DHT22;67165;50.256;10.978;2023-07-31T03:08:33;14.80;98.00
26575;DHT22;67165;50.256;10.978;2023-07-31T03:10:59;14.80;98.00
26575;DHT22;67165;50.256;10.978;2023-07-31T03:13:24;14.80;98.00
26575;DHT22;67165;50.256;10.978;2023-07-31T03:15:50;14.80;98.00
26575;DHT22;67165;50.256;10.978;2023-07-31T03:18:16;14.80;98.00
26575;DHT22;67165;50.256;10.978;2023-07-31T03:20:44;14.80;98.00
26575;DHT22;67165;50.256;10.978;2023-07-31T03:23:10;14.80;98.00
26575;DHT22;67165;50.256;10.978;2023-07-31T03:25:36;14.80;98.00
26575;DHT22;67165;50.256;10.978;2023-07-31T03:28:01;14.80;98.00
26575;DHT22;67165;50.256;10.978;2023-07-31T03:30:27;14.80;98.00
26575;DHT22;67165;50.256;10.978;2023-07-31T03:32:53;14.80;98.00
26575;DHT22;67165;50.256;10.978;2023-07-31T03:35:19;14.90;98.00
26575;DHT22;67165;50.256;10.978;2023-07-31T03:37:44;14.90;98.00
26575;DHT22;67165;50.256;10.978;2023-07-31T03:40:10;14.90;98.00
26575;DHT22;67165;50.256;10.978;2023-07-31T03:42:36;14.90;98.00
26575;DHT22;67165;50.256;10.978;2023-07-31T03:45:02;14.80;98.00
26575;DHT22;67165;50.256;10.978;2023-07-31T03:47:27;14.80;98.00
26575;DHT22;67165;50.256;10.978;2023-07-31T03:49:53;14.80;98.00
26575;DHT22;67165;50.256;10.978;2023-07-31T03:52:18;14.90;98.00
26575;DHT22;67165;50.256;10.978;2023-07-31T03:54:44;14.80;98.00
26575;DHT22;67165;50.256;10.978;2023-07-31T03:57:10;14.90;98.00
26575;DHT22;67165;50.256;10.978;2023-07-31T03:59:37;14.90;98.00
26575;DHT22;67165;50.256;10.978;2023-07-31T04:02:04;14.90;98.00
26575;DHT22;67165;50.256;10.978;2023-07-31T04:04:30;14.90;98.00
26575;DHT22;67165;50.256;10.978;2023-07-31T04:06:56;14.90;98.00
26575;DHT22;67165;50.256;10.978;2023-07-31T04:09:21;14.90;98.00
26575;DHT22;67165;50.256;10.978;2023-07-31T04:11:47;14.90;98.00
26575;DHT22;67165;50.256;10.978;2023-07-31T04:14:13;14.90;98.00
26575;DHT22;67165;50.256;10.978;2023-07-31T04:16:38;14.90;98.00
26575;DHT22;67165;50.256;10.978;2023-07-31T04:19:04;14.90;98.00
26575;DHT22;67165;50.256;10.978;2023-07-31T04:21:29;14.90;98.00
26575;DHT22;67165;50.256;10.978;2023-07-31T04:23:55;14.90;98.00
26575;DHT22;67165;50.256;10.978;2023-07-31T04:26:21;14.90;98.00
26575;DHT22;67165;50.256;10.978;2023-07-31T04:28:47;14.90;98.00
26575;DHT22;67165;50.256;10.978;2023-07-31T04:31:13;14.90;98.00
26575;DHT22;67165;50.256;10.978;2023-07-31T04:33:38;14.90;98.00
26575;DHT22;67165;50.256;10.978;2023-07-31T04:36:05;14.90;98.00
26575;DHT22;67165;50.256;10.978;2023-07-31T04:38:31;14.90;98.00
26575;DHT22;67165;50.256;10.978;2023-07-31T04:40:56;15.00;98.00
26575;DHT22;67165;50.256;10.978;2023-07-31T04:43:22;15.00;98.00
26575;DHT22;67165;50.256;10.978;2023-07-31T04:45:47;15.00;98.00
26575;DHT22;67165;50.256;10.978;2023-07-31T04:48:14;15.00;98.00
26575;DHT22;67165;50.256;10.978;2023-07-31T04:50:40;15.00;98.00
26575;DHT22;67165;50.256;10.978;2023-07-31T04:53:05;15.00;98.00
26575;DHT22;67165;50.256;10.978;2023-07-31T04:55:31;15.00;98.00
26575;DHT22;67165;50.256;10.978;2023-07-31T04:57:58;15.00;98.00
26575;DHT22;67165;50.256;10.978;2023-07-31T05:00:24;15.10;98.00
26575;DHT22;67165;50.256;10.978;2023-07-31T05:02:50;15.10;98.00
26575;DHT22;67165;50.256;10.978;2023-07-31T05:05:16;15.10;98.00
26575;DHT22;67165;50.256;10.978;2023-07-31T05:07:41;15.10;98.00
26575;DHT22;67165;50.256;10.978;2023-07-31T05:10:07;15.10;98.00
26575;DHT22;67165;50.256;10.978;2023-07-31T05:12:33;15.20;98.00
26575;DHT22;67165;50.256;10.978;2023-07-31T05:14:59;15.20;98.00
26575;DHT22;67165;50.256;10.978;2023-07-31T05:17:24;15.20;98.00
26575;DHT22;67165;50.256;10.978;2023-07-31T05:19:50;15.20;98.00
26575;DHT22;67165;50.256;10.978;2023-07-31T05:22:15;15.20;98.00
26575;DHT22;67165;50.256;10.978;2023-07-31T05:24:41;15.20;98.00
26575;DHT22;67165;50.256;10.978;2023-07-31T05:27:07;15.20;98.00
26575;DHT22;67165;50.256;10.978;2023-07-31T05:29:32;15.20;98.00
26575;DHT22;67165;50.256;10.978;2023-07-31T05:31:58;15.20;98.00
26575;DHT22;67165;50.256;10.978;2023-07-31T05:34:23;15.30;98.00
26575;DHT22;67165;50.256;10.978;2023-07-31T05:36:49;15.40;98.00
26575;DHT22;67165;50.256;10.978;2023-07-31T05:39:15;15.40;98.00
26575;DHT22;67165;50.256;10.978;2023-07-31T05:41:40;15.40;98.00
26575;DHT22;67165;50.256;10.978;2023-07-31T05:44:06;15.50;98.00
26575;DHT22;67165;50.256;10.978;2023-07-31T05:46:32;15.50;98.00
26575;DHT22;67165;50.256;10.978;2023-07-31T05:48:58;15.50;98.00
26575;DHT22;67165;50.256;10.978;2023-07-31T05:51:26;15.50;98.00
26575;DHT22;67165;50.256;10.978;2023-07-31T05:53:52;15.50;98.00
26575;DHT22;67165;50.256;10.978;2023-07-31T05:56:17;15.50;98.00
26575;DHT22;67165;50.256;10.978;2023-07-31T05:58:43;15.50;98.00
26575;DHT22;67165;50.256;10.978;2023-07-31T06:01:08;15.60;98.00
26575;DHT22;67165;50.256;10.978;2023-07-31T06:03:34;15.60;98.00
26575;DHT22;67165;50.256;10.978;2023-07-31T06:06:00;15.70;98.00
26575;DHT22;67165;50.256;10.978;2023-07-31T06:08:25;15.80;98.00
26575;DHT22;67165;50.256;10.978;2023-07-31T06:10:51;15.90;98.00
26575;DHT22;67165;50.256;10.978;2023-07-31T06:13:17;16.00;98.00
26575;DHT22;67165;50.256;10.978;2023-07-31T06:15:43;16.00;98.00
26575;DHT22;67165;50.256;10.978;2023-07-31T06:18:08;16.10;98.00
26575;DHT22;67165;50.256;10.978;2023-07-31T06:20:34;16.20;98.00
26575;DHT22;67165;50.256;10.978;2023-07-31T06:23:00;16.30;98.00
26575;DHT22;67165;50.256;10.978;2023-07-31T06:25:25;16.40;98.00
26575;DHT22;67165;50.256;10.978;2023-07-31T06:27:51;16.40;98.00
26575;DHT22;67165;50.256;10.978;2023-07-31T06:30:17;16.40;98.00
26575;DHT22;67165;50.256;10.978;2023-07-31T06:32:42;16.30;98.00
26575;DHT22;67165;50.256;10.978;2023-07-31T06:35:08;16.30;98.00
26575;DHT22;67165;50.256;10.978;2023-07-31T06:37:34;16.30;98.00
26575;DHT22;67165;50.256;10.978;2023-07-31T06:40:00;16.30;98.00
26575;DHT22;67165;50.256;10.978;2023-07-31T06:42:25;16.30;98.00
26575;DHT22;67165;50.256;10.978;2023-07-31T06:44:51;16.40;98.00
26575;DHT22;67165;50.256;10.978;2023-07-31T06:47:16;16.40;98.00
26575;DHT22;67165;50.256;10.978;2023-07-31T06:49:42;16.40;98.00
26575;DHT22;67165;50.256;10.978;2023-07-31T06:52:08;16.50;98.00
26575;DHT22;67165;50.256;10.978;2023-07-31T06:54:33;16.50;98.00
26575;DHT22;67165;50.256;10.978;2023-07-31T06:56:59;16.50;98.00
26575;DHT22;67165;50.256;10.978;2023-07-31T06:59:25;16.60;98.00
26575;DHT22;67165;50.256;10.978;2023-07-31T07:01:50;16.60;98.00
26575;DHT22;67165;50.256;10.978;2023-07-31T07:04:16;16.70;98.00
26575;DHT22;67165;50.256;10.978;2023-07-31T07:06:41;16.70;98.00
26575;DHT22;67165;50.256;10.978;2023-07-31T07:09:07;16.70;98.00
26575;DHT22;67165;50.256;10.978;2023-07-31T07:11:33;16.60;98.00
26575;DHT22;67165;50.256;10.978;2023-07-31T07:13:59;16.70;98.00
26575;DHT22;67165;50.256;10.978;2023-07-31T07:16:26;16.70;98.00
26575;DHT22;67165;50.256;10.978;2023-07-31T07:18:51;16.70;98.00
26575;DHT22;67165;50.256;10.978;2023-07-31T07:21:17;16.70;98.00
26575;DHT22;67165;50.256;10.978;2023-07-31T07:23:43;16.70;98.00
26575;DHT22;67165;50.256;10.978;2023-07-31T07:26:09;16.70;98.00
26575;DHT22;67165;50.256;10.978;2023-07-31T07:28:34;16.70;98.00
26575;DHT22;67165;50.256;10.978;2023-07-31T07:31:02;16.70;98.00
26575;DHT22;67165;50.256;10.978;2023-07-31T07:33:28;16.70;98.00
26575;DHT22;67165;50.256;10.978;2023-07-31T07:35:54;16.80;98.00
26575;DHT22;67165;50.256;10.978;2023-07-31T07:38:19;16.80;98.00
26575;DHT22;67165;50.256;10.978;2023-07-31T07:40:46;16.80;98.00
26575;DHT22;67165;50.256;10.978;2023-07-31T07:43:16;16.80;98.00
26575;DHT22;67165;50.256;10.978;2023-07-31T07:45:41;16.80;98.00
26575;DHT22;67165;50.256;10.978;2023-07-31T07:48:07;16.90;98.00
26575;DHT22;67165;50.256;10.978;2023-07-31T07:50:32;17.00;98.00
26575;DHT22;67165;50.256;10.978;2023-07-31T07:52:58;17.10;98.00
26575;DHT22;67165;50.256;10.978;2023-07-31T07:55:24;17.10;98.00
26575;DHT22;67165;50.256;10.978;2023-07-31T07:57:49;17.20;98.00
26575;DHT22;67165;50.256;10.978;2023-07-31T08:00:16;17.20;98.00
26575;DHT22;67165;50.256;10.978;2023-07-31T08:02:42;17.30;98.00
26575;DHT22;67165;50.256;10.978;2023-07-31T08:05:08;17.40;98.00
26575;DHT22;67165;50.256;10.978;2023-07-31T08:07:34;17.70;98.00
26575;DHT22;67165;50.256;10.978;2023-07-31T08:10:00;18.00;98.00
26575;DHT22;67165;50.256;10.978;2023-07-31T08:12:25;18.20;98.00
26575;DHT22;67165;50.256;10.978;2023-07-31T08:14:51;18.30;98.00
26575;DHT22;67165;50.256;10.978;2023-07-31T08:17:17;18.40;98.00
26575;DHT22;67165;50.256;10.978;2023-07-31T08:19:43;18.50;98.00
26575;DHT22;67165;50.256;10.978;2023-07-31T08:22:09;18.60;98.00
26575;DHT22;67165;50.256;10.978;2023-07-31T08:24:35;18.60;98.00
26575;DHT22;67165;50.256;10.978;2023-07-31T08:27:00;18.60;98.00
26575;DHT22;67165;50.256;10.978;2023-07-31T08:29:26;18.70;98.00
26575;DHT22;67165;50.256;10.978;2023-07-31T08:31:52;18.80;98.00
26575;DHT22;67165;50.256;10.978;2023-07-31T08:34:17;18.90;98.00
26575;DHT22;67165;50.256;10.978;2023-07-31T08:36:43;19.00;98.00
26575;DHT22;67165;50.256;10.978;2023-07-31T08:39:08;19.00;98.00
26575;DHT22;67165;50.256;10.978;2023-07-31T08:41:38;19.00;98.00
26575;DHT22;67165;50.256;10.978;2023-07-31T08:44:04;19.00;98.00
26575;DHT22;67165;50.256;10.978;2023-07-31T08:46:31;19.10;98.00
26575;DHT22;67165;50.256;10.978;2023-07-31T08:48:58;19.30;98.00
26575;DHT22;67165;50.256;10.978;2023-07-31T08:51:24;19.40;98.00
26575;DHT22;67165;50.256;10.978;2023-07-31T08:53:50;19.50;98.00
26575;DHT22;67165;50.256;10.978;2023-07-31T08:56:15;19.60;98.00
26575;DHT22;67165;50.256;10.978;2023-07-31T08:58:43;19.60;98.00
26575;DHT22;67165;50.256;10.978;2023-07-31T09:01:09;19.90;98.00
26575;DHT22;67165;50.256;10.978;2023-07-31T09:03:36;20.00;98.00
26575;DHT22;67165;50.256;10.978;2023-07-31T09:06:03;20.10;98.00
26575;DHT22;67165;50.256;10.978;2023-07-31T09:08:31;20.20;98.00
26575;DHT22;67165;50.256;10.978;2023-07-31T09:11:00;20.20;98.00
26575;DHT22;67165;50.256;10.978;2023-07-31T09:13:29;20.30;98.00
26575;DHT22;67165;50.256;10.978;2023-07-31T09:15:55;20.30;98.00
26575;DHT22;67165;50.256;10.978;2023-07-31T09:18:21;20.40;98.00
26575;DHT22;67165;50.256;10.978;2023-07-31T09:21:08;20.30;98.00
26575;DHT22;67165;50.256;10.978;2023-07-31T09:23:41;20.20;98.00
26575;DHT22;67165;50.256;10.978;2023-07-31T09:26:07;20.10;98.00
26575;DHT22;67165;50.256;10.978;2023-07-31T09:28:33;20.00;98.00
26575;DHT22;67165;50.256;10.978;2023-07-31T09:30:58;20.00;98.00
26575;DHT22;67165;50.256;10.978;2023-07-31T09:33:24;20.10;98.00
26575;DHT22;67165;50.256;10.978;2023-07-31T09:35:50;20.10;98.00
26575;DHT22;67165;50.256;10.978;2023-07-31T09:38:16;20.10;98.00
26575;DHT22;67165;50.256;10.978;2023-07-31T09:40:46;20.10;98.00
26575;DHT22;67165;50.256;10.978;2023-07-31T09:43:13;20.10;98.00
26575;DHT22;67165;50.256;10.978;2023-07-31T09:45:43;20.00;98.00
26575;DHT22;67165;50.256;10.978;2023-07-31T09:48:14;20.10;98.00
26575;DHT22;67165;50.256;10.978;2023-07-31T09:50:43;20.30;98.00
26575;DHT22;67165;50.256;10.978;2023-07-31T09:53:09;20.60;98.00
26575;DHT22;67165;50.256;10.978;2023-07-31T09:55:36;21.00;98.00
26575;DHT22;67165;50.256;10.978;2023-07-31T09:58:11;21.20;98.00
26575;DHT22;67165;50.256;10.978;2023-07-31T10:00:37;21.50;98.00
26575;DHT22;67165;50.256;10.978;2023-07-31T10:03:07;21.70;98.00
26575;DHT22;67165;50.256;10.978;2023-07-31T10:05:46;21.90;98.00
26575;DHT22;67165;50.256;10.978;2023-07-31T10:08:15;22.00;98.00
26575;DHT22;67165;50.256;10.978;2023-07-31T10:10:43;21.80;98.00
26575;DHT22;67165;50.256;10.978;2023-07-31T10:13:09;21.90;98.00
26575;DHT22;67165;50.256;10.978;2023-07-31T10:15:36;21.90;98.00
26575;DHT22;67165;50.256;10.978;2023-07-31T10:18:01;21.80;98.00
26575;DHT22;67165;50.256;10.978;2023-07-31T10:20:28;21.70;98.00
26575;DHT22;67165;50.256;10.978;2023-07-31T10:22:55;21.60;98.00
26575;DHT22;67165;50.256;10.978;2023-07-31T10:25:22;21.60;98.00
26575;DHT22;67165;50.256;10.978;2023-07-31T10:27:47;21.60;98.00
26575;DHT22;67165;50.256;10.978;2023-07-31T10:30:16;21.60;98.00
26575;DHT22;67165;50.256;10.978;2023-07-31T10:32:44;21.60;98.00
26575;DHT22;67165;50.256;10.978;2023-07-31T10:35:11;21.70;98.00
26575;DHT22;67165;50.256;10.978;2023-07-31T10:40:46;21.90;98.00
26575;DHT22;67165;50.256;10.978;2023-07-31T10:42:55;21.90;98.00
26575;DHT22;67165;50.256;10.978;2023-07-31T10:45:42;21.90;98.00
26575;DHT22;67165;50.256;10.978;2023-07-31T10:48:15;21.80;98.00
26575;DHT22;67165;50.256;10.978;2023-07-31T10:50:49;21.90;98.00
26575;DHT22;67165;50.256;10.978;2023-07-31T10:55:50;21.90;98.00
26575;DHT22;67165;50.256;10.978;2023-07-31T10:58:19;21.90;98.00
26575;DHT22;67165;50.256;10.978;2023-07-31T11:00:45;21.70;98.00
26575;DHT22;67165;50.256;10.978;2023-07-31T11:03:17;21.60;98.00
26575;DHT22;67165;50.256;10.978;2023-07-31T11:08:18;21.40;98.00
26575;DHT22;67165;50.256;10.978;2023-07-31T11:10:45;21.30;98.00
26575;DHT22;67165;50.256;10.978;2023-07-31T11:13:12;21.20;98.00
26575;DHT22;67165;50.256;10.978;2023-07-31T11:15:38;21.20;98.00
26575;DHT22;67165;50.256;10.978;2023-07-31T11:18:04;21.00;98.00
26575;DHT22;67165;50.256;10.978;2023-07-31T11:20:32;20.90;98.00
26575;DHT22;67165;50.256;10.978;2023-07-31T11:23:08;20.80;98.00
26575;DHT22;67165;50.256;10.978;2023-07-31T11:25:35;20.70;98.00
26575;DHT22;67165;50.256;10.978;2023-07-31T11:28:11;20.60;98.00
26575;DHT22;67165;50.256;10.978;2023-07-31T11:30:38;20.30;98.00
26575;DHT22;67165;50.256;10.978;2023-07-31T11:33:06;20.20;98.00
26575;DHT22;67165;50.256;10.978;2023-07-31T11:35:33;20.10;98.00
26575;DHT22;67165;50.256;10.978;2023-07-31T11:38:00;19.90;98.00
26575;DHT22;67165;50.256;10.978;2023-07-31T11:40:26;19.80;98.00
26575;DHT22;67165;50.256;10.978;2023-07-31T11:42:58;19.70;98.00
26575;DHT22;67165;50.256;10.978;2023-07-31T11:45:25;19.60;98.00
26575;DHT22;67165;50.256;10.978;2023-07-31T11:47:54;19.70;98.00
26575;DHT22;67165;50.256;10.978;2023-07-31T11:50:20;19.60;98.00
26575;DHT22;67165;50.256;10.978;2023-07-31T11:52:46;19.60;98.00
26575;DHT22;67165;50.256;10.978;2023-07-31T11:55:14;19.50;98.00
26575;DHT22;67165;50.256;10.978;2023-07-31T11:57:41;19.60;98.00
26575;DHT22;67165;50.256;10.978;2023-07-31T12:00:09;19.60;98.00
26575;DHT22;67165;50.256;10.978;2023-07-31T12:02:37;19.50;98.00
26575;DHT22;67165;50.256;10.978;2023-07-31T12:05:06;19.40;98.00
26575;DHT22;67165;50.256;10.978;2023-07-31T12:07:52;19.40;98.00
26575;DHT22;67165;50.256;10.978;2023-07-31T12:10:28;19.50;98.00
26575;DHT22;67165;50.256;10.978;2023-07-31T12:13:07;19.50;98.00
26575;DHT22;67165;50.256;10.978;2023-07-31T12:15:44;19.60;98.00
26575;DHT22;67165;50.256;10.978;2023-07-31T12:18:14;19.60;98.00
26575;DHT22;67165;50.256;10.978;2023-07-31T12:20:41;19.70;98.00
26575;DHT22;67165;50.256;10.978;2023-07-31T12:23:07;19.80;98.00
26575;DHT22;67165;50.256;10.978;2023-07-31T12:25:37;19.90;98.00
26575;DHT22;67165;50.256;10.978;2023-07-31T12:28:07;20.10;98.00
26575;DHT22;67165;50.256;10.978;2023-07-31T12:30:37;20.10;98.00
26575;DHT22;67165;50.256;10.978;2023-07-31T12:33:13;20.10;98.00
26575;DHT22;67165;50.256;10.978;2023-07-31T12:35:49;20.10;98.00
26575;DHT22;67165;50.256;10.978;2023-07-31T12:38:14;20.00;98.00
26575;DHT22;67165;50.256;10.978;2023-07-31T12:40:41;20.00;98.00
26575;DHT22;67165;50.256;10.978;2023-07-31T12:43:08;20.00;98.00
26575;DHT22;67165;50.256;10.978;2023-07-31T12:45:34;20.10;98.00
26575;DHT22;67165;50.256;10.978;2023-07-31T12:48:01;20.10;98.00
26575;DHT22;67165;50.256;10.978;2023-07-31T12:50:27;20.10;98.00
26575;DHT22;67165;50.256;10.978;2023-07-31T12:52:56;20.10;98.00
26575;DHT22;67165;50.256;10.978;2023-07-31T12:55:22;20.10;98.00
26575;DHT22;67165;50.256;10.978;2023-07-31T12:57:49;20.00;98.00
26575;DHT22;67165;50.256;10.978;2023-07-31T13:00:14;20.00;98.00
26575;DHT22;67165;50.256;10.978;2023-07-31T13:02:40;20.00;98.00
26575;DHT22;67165;50.256;10.978;2023-07-31T13:05:06;19.90;98.00
26575;DHT22;67165;50.256;10.978;2023-07-31T13:07:32;19.90;98.00
26575;DHT22;67165;50.256;10.978;2023-07-31T13:09:57;20.00;98.00
26575;DHT22;67165;50.256;10.978;2023-07-31T13:12:23;20.20;98.00
26575;DHT22;67165;50.256;10.978;2023-07-31T13:14:49;20.30;98.00
26575;DHT22;67165;50.256;10.978;2023-07-31T13:17:15;20.60;98.00
26575;DHT22;67165;50.256;10.978;2023-07-31T13:19:41;20.80;98.00
26575;DHT22;67165;50.256;10.978;2023-07-31T13:22:07;20.90;98.00
26575;DHT22;67165;50.256;10.978;2023-07-31T13:24:33;20.90;98.00
26575;DHT22;67165;50.256;10.978;2023-07-31T13:26:58;21.10;98.00
26575;DHT22;67165;50.256;10.978;2023-07-31T13:29:24;21.20;98.00
26575;DHT22;67165;50.256;10.978;2023-07-31T13:31:49;21.20;98.00
26575;DHT22;67165;50.256;10.978;2023-07-31T13:34:15;21.10;98.00
26575;DHT22;67165;50.256;10.978;2023-07-31T13:36:41;21.20;98.00
26575;DHT22;67165;50.256;10.978;2023-07-31T13:39:07;21.30;98.00
26575;DHT22;67165;50.256;10.978;2023-07-31T13:41:33;21.30;98.00
26575;DHT22;67165;50.256;10.978;2023-07-31T13:43:58;21.20;98.00
26575;DHT22;67165;50.256;10.978;2023-07-31T13:46:24;21.20;98.00
26575;DHT22;67165;50.256;10.978;2023-07-31T13:48:52;21.40;98.00
26575;DHT22;67165;50.256;10.978;2023-07-31T13:51:21;21.50;98.00
26575;DHT22;67165;50.256;10.978;2023-07-31T13:53:47;21.50;98.00
26575;DHT22;67165;50.256;10.978;2023-07-31T13:56:13;21.70;98.00
26575;DHT22;67165;50.256;10.978;2023-07-31T13:58:39;21.70;98.00
26575;DHT22;67165;50.256;10.978;2023-07-31T14:01:04;21.70;98.00
26575;DHT22;67165;50.256;10.978;2023-07-31T14:03:30;21.70;98.00
26575;DHT22;67165;50.256;10.978;2023-07-31T14:05:56;21.70;98.00
26575;DHT22;67165;50.256;10.978;2023-07-31T14:08:22;21.70;98.00
26575;DHT22;67165;50.256;10.978;2023-07-31T14:10:48;21.70;98.00
26575;DHT22;67165;50.256;10.978;2023-07-31T14:13:13;21.70;98.00
26575;DHT22;67165;50.256;10.978;2023-07-31T14:15:42;21.60;98.00
26575;DHT22;67165;50.256;10.978;2023-07-31T14:18:07;21.50;98.00
26575;DHT22;67165;50.256;10.978;2023-07-31T14:20:33;21.50;98.00
26575;DHT22;67165;50.256;10.978;2023-07-31T14:22:59;21.30;98.00
26575;DHT22;67165;50.256;10.978;2023-07-31T14:25:24;21.20;98.00
26575;DHT22;67165;50.256;10.978;2023-07-31T14:27:50;21.10;98.00
26575;DHT22;67165;50.256;10.978;2023-07-31T14:30:16;21.00;98.00
26575;DHT22;67165;50.256;10.978;2023-07-31T14:32:42;21.00;98.00
26575;DHT22;67165;50.256;10.978;2023-07-31T14:35:08;21.10;98.00
26575;DHT22;67165;50.256;10.978;2023-07-31T14:37:40;21.20;98.00
26575;DHT22;67165;50.256;10.978;2023-07-31T14:40:11;21.20;98.00
26575;DHT22;67165;50.256;10.978;2023-07-31T14:42:37;21.20;98.00
26575;DHT22;67165;50.256;10.978;2023-07-31T14:45:07;21.30;98.00
26575;DHT22;67165;50.256;10.978;2023-07-31T14:47:34;21.30;98.00
26575;DHT22;67165;50.256;10.978;2023-07-31T14:50:00;21.30;98.00
26575;DHT22;67165;50.256;10.978;2023-07-31T14:52:26;21.40;98.00
26575;DHT22;67165;50.256;10.978;2023-07-31T14:54:51;21.60;98.00
26575;DHT22;67165;50.256;10.978;2023-07-31T14:57:17;21.70;98.00
26575;DHT22;67165;50.256;10.978;2023-07-31T14:59:43;21.70;98.00
26575;DHT22;67165;50.256;10.978;2023-07-31T15:02:09;21.80;98.00
26575;DHT22;67165;50.256;10.978;2023-07-31T15:04:36;21.80;98.00
26575;DHT22;67165;50.256;10.978;2023-07-31T15:07:02;21.70;98.00
26575;DHT22;67165;50.256;10.978;2023-07-31T15:09:27;21.60;98.00
26575;DHT22;67165;50.256;10.978;2023-07-31T15:11:53;21.60;98.00
26575;DHT22;67165;50.256;10.978;2023-07-31T15:14:19;21.40;98.00
26575;DHT22;67165;50.256;10.978;2023-07-31T15:16:45;21.40;98.00
26575;DHT22;67165;50.256;10.978;2023-07-31T15:19:11;21.30;98.00
26575;DHT22;67165;50.256;10.978;2023-07-31T15:21:37;21.40;98.00
26575;DHT22;67165;50.256;10.978;2023-07-31T15:24:03;21.30;98.00
26575;DHT22;67165;50.256;10.978;2023-07-31T15:26:29;21.30;98.00